Southern Illinois Airport Carbondale,Murphysboro US
ICAO: KMDH
IATA: MDH
Category: Medium
Scheduled Services: No

Elevation: 411 ft
TransAlt. 18000 ft.

Airport Communications:
ATIS:119.85
KANSAS CITY CNTR:125.3
CTAF:125.35
GND:121.8
CARBONDALE TWR:125.35
UNICOM:122.95

KMDH Zoom In..

Runways:

(A) RW 06 length 4163 ft width 100 ft
---- / hdg 62

(B) RW 18L length 6506 ft width 100 ft
ILS 110.90 / hdg 182

(C) RW 18R length 3498 ft width 60 ft
---- / hdg 182

(D) RW 24 length 4163 ft width 100 ft
---- / hdg 242

(E) RW 36L length 3498 ft width 60 ft
---- / hdg 2

(F) RW 36R length 6506 ft width 100 ft
---- / hdg 2

Location; KMDH
Day. 20 / Time. 09.52 Zulu
* Altimeter: 30.43
* Temperature: 03° c. 37.4°f.
* Wind from: 030° Speed 05 kn.
Dewpoint: -02° c.
Visibility: 10 Statute Miles.
Clouds: Clear (automated report).

KMDH 200952Z AUTO 03005KT 10SM CLR 03/M02 A3043 RMK AO2 SLP305 T00331022


Wind From 030°
Speed 05 kn.

  YouTube Music Video
 
jpsmedia.com for Web Design  worldairports.se 2018   terms of use